Mary B. — WDD9748 — position and weather

sailwx.info

Track history (hours):
 
Tides and Currents Weather Stations Pressure Air Temp Water Temp Dewpoint Dewpoint Depression Visibility Wind Speed Wind Dir Waves Ship Positions

Mary B.

Owner: Bernert Barge Lines, Oregon City, OR. More information available from US FCC via Universal Licensing System and Coast Guard Vessel Documentation Center.

Last reported at 2017-Oct-16 02:47 UTC. Time now 2017-Oct-23 06:12 UTC.
Position N 45°37' W 122°01'.

MMSI: 333761398.

Date/timePositionNaut miles runAvg speedWind from/ knotsBaromVisibWave heightAir tempDewpointWater temp
2017-Oct-16 02:47N 45°37' W 122°01'3 5.5
2017-Oct-16 02:18N 45°36' W 122°04'2 6.0
2017-Oct-16 02:01N 45°35' W 122°06'3 5.9
2017-Oct-16 01:31N 45°35' W 122°10'3 5.6
2017-Oct-16 01:00N 45°33' W 122°14'3 5.5
2017-Oct-16 00:30N 45°33' W 122°18'3 5.6
2017-Oct-15 23:59N 45°34' W 122°21'3 5.7
2017-Oct-15 23:30N 45°34' W 122°25'3 5.7
2017-Oct-15 23:01N 45°35' W 122°29'3 6.2
2017-Oct-15 22:28N 45°36' W 122°34'3 6.4
2017-Oct-15 22:00N 45°37' W 122°38'3 6.3
2017-Oct-15 21:30N 45°38' W 122°42'3 5.5
2017-Oct-15 21:00N 45°39' W 122°45'4 6.9
2017-Oct-15 20:30N 45°43' W 122°46'4 7.3
2017-Oct-15 20:00N 45°46' W 122°46'4 6.9
2017-Oct-15 19:25N 45°50' W 122°47'3 6.8
2017-Oct-15 19:00N 45°53' W 122°48'3 6.8
2017-Oct-15 18:31N 45°56' W 122°48'3 6.7
2017-Oct-15 18:01N 45°59' W 122°51'3 6.5
2017-Oct-15 17:31N 46°02' W 122°53'3 6.2
2017-Oct-15 17:00N 46°05' W 122°55'3 5.8
2017-Oct-15 16:31N 46°07' W 122°58'0 0.5
2017-Oct-15 16:00N 46°07' W 122°58'0 0.0
2017-Oct-15 15:31N 46°07' W 122°58'1 1.1
2017-Oct-15 15:01N 46°06' W 122°58'1 0.6
2017-Oct-15 13:54N 46°06' W 122°57'5 0.5
2017-Oct-15 02:50N 46°02' W 122°52'3 7.7
2017-Oct-15 02:30N 45°59' W 122°51'6 7.6
2017-Oct-15 01:40N 45°53' W 122°48'3 7.8
2017-Oct-15 01:20N 45°51' W 122°47'2 7.5
2017-Oct-15 01:00N 45°48' W 122°48'3 6.7
2017-Oct-15 00:30N 45°45' W 122°46'4 7.4
2017-Oct-15 00:00N 45°42' W 122°46'3 6.5
2017-Oct-14 23:30N 45°39' W 122°44'3 6.8
2017-Oct-14 23:00N 45°37' W 122°40'3 5.6
2017-Oct-14 22:31N 45°36' W 122°36'3 6.6
2017-Oct-14 22:00N 45°35' W 122°32'3 6.7
2017-Oct-14 21:30N 45°34' W 122°27'3 6.5
2017-Oct-14 21:00N 45°35' W 122°23'3 6.7
2017-Oct-14 20:30N 45°33' W 122°19'3 6.9
2017-Oct-14 20:00N 45°33' W 122°14'3 6.9
2017-Oct-14 19:30N 45°35' W 122°09'4 6.7
2017-Oct-14 18:56N 45°36' W 122°04'  
2017-Oct-08 11:31N 45°37' W 122°02'0 0.0
2017-Oct-08 11:30N 45°37' W 122°02'4 6.8
2017-Oct-08 10:59N 45°35' W 122°06'3 6.6
2017-Oct-08 10:30N 45°35' W 122°11'3 6.6
2017-Oct-08 10:01N 45°33' W 122°15'3 6.2
2017-Oct-08 09:30N 45°33' W 122°19'3 5.6
2017-Oct-08 09:01N 45°35' W 122°23'3 5.8
2017-Oct-08 08:28N 45°34' W 122°27'3 5.7
2017-Oct-08 08:00N 45°35' W 122°31'3 5.9
2017-Oct-08 07:30N 45°36' W 122°35'3 6.1
2017-Oct-08 07:00N 45°37' W 122°39'3 6.1
2017-Oct-08 06:30N 45°38' W 122°43'3 6.1
2017-Oct-08 06:00N 45°40' W 122°46'3 6.3
2017-Oct-08 05:30N 45°43' W 122°46'3 6.3
2017-Oct-08 05:00N 45°46' W 122°46'3 6.3
2017-Oct-08 04:30N 45°49' W 122°48'3 6.2
2017-Oct-08 04:00N 45°53' W 122°48'4 6.4
2017-Oct-08 03:19N 45°57' W 122°49'2 6.7
2017-Oct-08 03:01N 45°59' W 122°50'4 7.2
2017-Oct-08 02:31N 46°02' W 122°53'4 7.2
2017-Oct-08 02:01N 46°05' W 122°55'2 3.7
2017-Oct-08 01:30N 46°06' W 122°57'1 2.1
2017-Oct-08 00:58N 46°07' W 122°58'1 2.6
2017-Oct-08 00:30N 46°06' W 122°57'1 1.4
2017-Oct-08 00:00N 46°06' W 122°56'0 0.5
2017-Oct-07 23:31N 46°06' W 122°56'0 1.0
2017-Oct-07 23:00N 46°05' W 122°56'1 1.1
2017-Oct-07 22:31N 46°06' W 122°55'1 1.1
2017-Oct-07 22:00N 46°05' W 122°56'0 0.1
2017-Oct-07 21:31N 46°05' W 122°56'0 0.0
2017-Oct-07 02:53N 46°05' W 122°56'2 5.0
2017-Oct-07 02:30N 46°07' W 122°58'0 0.7
2017-Oct-07 02:00N 46°07' W 122°58'2 3.9
2017-Oct-07 01:30N 46°06' W 122°56'0 0.5
2017-Oct-07 01:00N 46°06' W 122°56'0 0.1
2017-Oct-07 00:30N 46°06' W 122°56'0 0.8
2017-Oct-07 00:01N 46°06' W 122°55'1 1.1
2017-Oct-06 23:31N 46°05' W 122°56'2 3.5
2017-Oct-06 23:00N 46°04' W 122°53'3 5.0
2017-Oct-06 22:30N 46°02' W 122°53'3 5.6
2017-Oct-06 22:00N 45°59' W 122°51'3 6.0
2017-Oct-06 21:29N 45°57' W 122°49'3 6.8
2017-Oct-06 21:00N 45°53' W 122°48'4 7.0
2017-Oct-06 20:30N 45°50' W 122°47'4 7.0
2017-Oct-06 20:00N 45°47' W 122°46'4 7.1
2017-Oct-06 19:30N 45°43' W 122°46'3 6.9
2017-Oct-06 19:00N 45°40' W 122°46'3 6.6
2017-Oct-06 18:31N 45°38' W 122°42'3 6.8
2017-Oct-06 18:00N 45°36' W 122°37'3 6.9
2017-Oct-06 17:30N 45°36' W 122°33'3 6.7
2017-Oct-06 17:00N 45°35' W 122°28'3 6.3
2017-Oct-06 16:30N 45°34' W 122°24'3 6.4
2017-Oct-06 16:00N 45°33' W 122°19'3 6.3
2017-Oct-06 15:30N 45°33' W 122°15'3 6.4
2017-Oct-06 15:00N 45°35' W 122°11'5 9.9
2017-Oct-06 14:28N 45°36' W 122°04'1 2.5
2017-Oct-06 14:00N 45°37' W 122°02'  
Track history (hours):
 
Tides and Currents Weather Stations Pressure Air Temp Water Temp Dewpoint Dewpoint Depression Visibility Wind Speed Wind Dir Waves Ship Positions

Mary B.

Owner: Bernert Barge Lines, Oregon City, OR. More information available from US FCC via Universal Licensing System and Coast Guard Vessel Documentation Center.

Last reported at 2017-Oct-16 02:47 UTC. Time now 2017-Oct-23 06:12 UTC.
Position N 45°37' W 122°01'.

MMSI: 333761398.

Date/timePositionNaut miles runAvg speedWind from/ knotsBaromVisibWave heightAir tempDewpointWater temp
2017-Oct-16 02:47N 45°37' W 122°01'3 5.5
2017-Oct-16 02:18N 45°36' W 122°04'2 6.0
2017-Oct-16 02:01N 45°35' W 122°06'3 5.9
2017-Oct-16 01:31N 45°35' W 122°10'3 5.6
2017-Oct-16 01:00N 45°33' W 122°14'3 5.5
2017-Oct-16 00:30N 45°33' W 122°18'3 5.6
2017-Oct-15 23:59N 45°34' W 122°21'3 5.7
2017-Oct-15 23:30N 45°34' W 122°25'3 5.7
2017-Oct-15 23:01N 45°35' W 122°29'3 6.2
2017-Oct-15 22:28N 45°36' W 122°34'3 6.4
2017-Oct-15 22:00N 45°37' W 122°38'3 6.3
2017-Oct-15 21:30N 45°38' W 122°42'3 5.5
2017-Oct-15 21:00N 45°39' W 122°45'4 6.9
2017-Oct-15 20:30N 45°43' W 122°46'4 7.3
2017-Oct-15 20:00N 45°46' W 122°46'4 6.9
2017-Oct-15 19:25N 45°50' W 122°47'3 6.8
2017-Oct-15 19:00N 45°53' W 122°48'3 6.8
2017-Oct-15 18:31N 45°56' W 122°48'3 6.7
2017-Oct-15 18:01N 45°59' W 122°51'3 6.5
2017-Oct-15 17:31N 46°02' W 122°53'3 6.2
2017-Oct-15 17:00N 46°05' W 122°55'3 5.8
2017-Oct-15 16:31N 46°07' W 122°58'0 0.5
2017-Oct-15 16:00N 46°07' W 122°58'0 0.0
2017-Oct-15 15:31N 46°07' W 122°58'1 1.1
2017-Oct-15 15:01N 46°06' W 122°58'1 0.6
2017-Oct-15 13:54N 46°06' W 122°57'5 0.5
2017-Oct-15 02:50N 46°02' W 122°52'3 7.7
2017-Oct-15 02:30N 45°59' W 122°51'6 7.6
2017-Oct-15 01:40N 45°53' W 122°48'3 7.8
2017-Oct-15 01:20N 45°51' W 122°47'2 7.5
2017-Oct-15 01:00N 45°48' W 122°48'3 6.7
2017-Oct-15 00:30N 45°45' W 122°46'4 7.4
2017-Oct-15 00:00N 45°42' W 122°46'3 6.5
2017-Oct-14 23:30N 45°39' W 122°44'3 6.8
2017-Oct-14 23:00N 45°37' W 122°40'3 5.6
2017-Oct-14 22:31N 45°36' W 122°36'3 6.6
2017-Oct-14 22:00N 45°35' W 122°32'3 6.7
2017-Oct-14 21:30N 45°34' W 122°27'3 6.5
2017-Oct-14 21:00N 45°35' W 122°23'3 6.7
2017-Oct-14 20:30N 45°33' W 122°19'3 6.9
2017-Oct-14 20:00N 45°33' W 122°14'3 6.9
2017-Oct-14 19:30N 45°35' W 122°09'4 6.7
2017-Oct-14 18:56N 45°36' W 122°04'  
2017-Oct-08 11:31N 45°37' W 122°02'0 0.0
2017-Oct-08 11:30N 45°37' W 122°02'4 6.8
2017-Oct-08 10:59N 45°35' W 122°06'3 6.6
2017-Oct-08 10:30N 45°35' W 122°11'3 6.6
2017-Oct-08 10:01N 45°33' W 122°15'3 6.2
2017-Oct-08 09:30N 45°33' W 122°19'3 5.6
2017-Oct-08 09:01N 45°35' W 122°23'3 5.8
2017-Oct-08 08:28N 45°34' W 122°27'3 5.7
2017-Oct-08 08:00N 45°35' W 122°31'3 5.9
2017-Oct-08 07:30N 45°36' W 122°35'3 6.1
2017-Oct-08 07:00N 45°37' W 122°39'3 6.1
2017-Oct-08 06:30N 45°38' W 122°43'3 6.1
2017-Oct-08 06:00N 45°40' W 122°46'3 6.3
2017-Oct-08 05:30N 45°43' W 122°46'3 6.3
2017-Oct-08 05:00N 45°46' W 122°46'3 6.3
2017-Oct-08 04:30N 45°49' W 122°48'3 6.2
2017-Oct-08 04:00N 45°53' W 122°48'4 6.4
2017-Oct-08 03:19N 45°57' W 122°49'2 6.7
2017-Oct-08 03:01N 45°59' W 122°50'4 7.2
2017-Oct-08 02:31N 46°02' W 122°53'4 7.2
2017-Oct-08 02:01N 46°05' W 122°55'2 3.7
2017-Oct-08 01:30N 46°06' W 122°57'1 2.1
2017-Oct-08 00:58N 46°07' W 122°58'1 2.6
2017-Oct-08 00:30N 46°06' W 122°57'1 1.4
2017-Oct-08 00:00N 46°06' W 122°56'0 0.5
2017-Oct-07 23:31N 46°06' W 122°56'0 1.0
2017-Oct-07 23:00N 46°05' W 122°56'1 1.1
2017-Oct-07 22:31N 46°06' W 122°55'1 1.1
2017-Oct-07 22:00N 46°05' W 122°56'0 0.1
2017-Oct-07 21:31N 46°05' W 122°56'0 0.0
2017-Oct-07 02:53N 46°05' W 122°56'2 5.0
2017-Oct-07 02:30N 46°07' W 122°58'0 0.7
2017-Oct-07 02:00N 46°07' W 122°58'2 3.9
2017-Oct-07 01:30N 46°06' W 122°56'0 0.5
2017-Oct-07 01:00N 46°06' W 122°56'0 0.1
2017-Oct-07 00:30N 46°06' W 122°56'0 0.8
2017-Oct-07 00:01N 46°06' W 122°55'1 1.1
2017-Oct-06 23:31N 46°05' W 122°56'2 3.5
2017-Oct-06 23:00N 46°04' W 122°53'3 5.0
2017-Oct-06 22:30N 46°02' W 122°53'3 5.6
2017-Oct-06 22:00N 45°59' W 122°51'3 6.0
2017-Oct-06 21:29N 45°57' W 122°49'3 6.8
2017-Oct-06 21:00N 45°53' W 122°48'4 7.0
2017-Oct-06 20:30N 45°50' W 122°47'4 7.0
2017-Oct-06 20:00N 45°47' W 122°46'4 7.1
2017-Oct-06 19:30N 45°43' W 122°46'3 6.9
2017-Oct-06 19:00N 45°40' W 122°46'3 6.6
2017-Oct-06 18:31N 45°38' W 122°42'3 6.8
2017-Oct-06 18:00N 45°36' W 122°37'3 6.9
2017-Oct-06 17:30N 45°36' W 122°33'3 6.7
2017-Oct-06 17:00N 45°35' W 122°28'3 6.3
2017-Oct-06 16:30N 45°34' W 122°24'3 6.4
2017-Oct-06 16:00N 45°33' W 122°19'3 6.3
2017-Oct-06 15:30N 45°33' W 122°15'3 6.4
2017-Oct-06 15:00N 45°35' W 122°11'5 9.9
2017-Oct-06 14:28N 45°36' W 122°04'1 2.5
2017-Oct-06 14:00N 45°37' W 122°02'  

Dump ship's entire track history